createdAt,value
2023-07-01T00:00:58.459Z,184.96
2023-07-01T00:01:58.538Z,186.57
2023-07-01T00:02:58.589Z,187.32
2023-07-01T00:03:58.553Z,187.80
2023-07-01T00:04:58.640Z,188.00
2023-07-01T00:05:58.615Z,187.79
2023-07-01T00:06:58.658Z,187.03
2023-07-01T00:07:58.737Z,186.40
2023-07-01T00:08:58.729Z,187.47
2023-07-01T00:09:58.691Z,187.54
2023-07-01T00:10:58.680Z,187.56
2023-07-01T00:11:58.661Z,186.33
2023-07-01T00:12:58.630Z,188.43
2023-07-01T00:13:58.606Z,187.35
2023-07-01T00:14:58.643Z,187.13
2023-07-01T00:15:58.688Z,185.90
2023-07-01T00:16:58.559Z,186.22
2023-07-01T00:17:58.562Z,187.46
2023-07-01T00:18:58.512Z,186.61
2023-07-01T00:19:58.506Z,185.32
2023-07-01T00:20:58.470Z,186.35
2023-07-01T00:21:58.515Z,186.54
2023-07-01T00:22:58.544Z,184.80
2023-07-01T00:23:58.567Z,186.60
2023-07-01T00:24:58.615Z,187.36
2023-07-01T00:25:58.635Z,185.93
2023-07-01T00:26:58.662Z,184.96
2023-07-01T00:27:58.708Z,184.71
2023-07-01T00:28:58.761Z,182.02
2023-07-01T00:29:58.767Z,185.01
2023-07-01T00:30:58.827Z,185.33
2023-07-01T00:31:58.867Z,184.77
2023-07-01T00:32:58.893Z,183.06
2023-07-01T00:33:58.901Z,185.87
2023-07-01T00:34:58.935Z,184.19
2023-07-01T00:35:58.959Z,183.19
2023-07-01T00:36:59.016Z,182.88
2023-07-01T00:37:59.030Z,183.14
2023-07-01T00:38:59.069Z,181.07
2023-07-01T00:39:59.114Z,177.95
2023-07-01T00:40:59.142Z,180.44
2023-07-01T00:41:59.172Z,178.94
2023-07-01T00:42:59.186Z,174.76
2023-07-01T00:43:59.222Z,173.86
2023-07-01T00:44:59.259Z,171.36
2023-07-01T00:45:59.328Z,166.06
2023-07-01T00:46:59.268Z,166.22
2023-07-01T00:47:59.323Z,166.21
2023-07-01T00:48:59.230Z,163.71
2023-07-01T00:49:59.229Z,161.02
2023-07-01T00:50:59.295Z,157.77
2023-07-01T00:51:59.208Z,152.34
2023-07-01T00:52:59.175Z,146.17
2023-07-01T00:53:59.168Z,144.20
2023-07-01T00:54:59.136Z,140.17
2023-07-01T00:55:59.109Z,133.51
2023-07-01T00:56:59.107Z,130.73
2023-07-01T00:57:59.107Z,124.50
2023-07-01T00:58:59.110Z,119.85
2023-07-01T00:59:59.145Z,118.44
2023-07-01T01:00:59.213Z,115.04
2023-07-01T01:01:59.225Z,112.29
2023-07-01T01:02:59.325Z,108.67
2023-07-01T01:03:59.320Z,105.50
2023-07-01T01:04:59.353Z,103.13
2023-07-01T01:05:59.394Z,101.75
2023-07-01T01:06:59.432Z,98.51
2023-07-01T01:08:00.805Z,98.18
2023-07-01T01:08:59.515Z,95.35
2023-07-01T01:09:59.572Z,94.71
2023-07-01T01:10:59.602Z,91.16
2023-07-01T01:11:59.668Z,93.22
2023-07-01T01:12:59.710Z,87.14
2023-07-01T01:13:59.760Z,86.70
2023-07-01T01:14:59.781Z,89.69
2023-07-01T01:15:59.873Z,93.71
2023-07-01T01:16:59.884Z,98.36
2023-07-01T01:17:59.949Z,103.37
2023-07-01T01:18:59.978Z,106.83
2023-07-01T01:20:00.002Z,109.72
2023-07-01T01:21:00.071Z,112.31
2023-07-01T01:22:00.758Z,114.70
2023-07-01T01:23:00.108Z,115.89
2023-07-01T01:24:00.194Z,119.60
2023-07-01T01:25:00.205Z,121.60
2023-07-01T01:26:00.236Z,121.78
2023-07-01T01:27:00.283Z,123.11
2023-07-01T01:28:00.319Z,123.72
2023-07-01T01:29:00.367Z,123.04
2023-07-01T01:30:00.446Z,124.32
2023-07-01T01:31:00.481Z,124.12
2023-07-01T01:32:00.458Z,127.21
2023-07-01T01:33:00.524Z,128.95
2023-07-01T01:34:00.535Z,130.11
2023-07-01T01:35:00.571Z,131.13
2023-07-01T01:36:00.623Z,131.39
2023-07-01T01:37:00.649Z,131.76
2023-07-01T01:38:00.685Z,134.04
2023-07-01T01:39:00.722Z,135.31
2023-07-01T01:40:00.762Z,134.41
2023-07-01T01:41:00.800Z,136.12
2023-07-01T01:42:00.851Z,135.90
2023-07-01T01:43:00.887Z,137.13
2023-07-01T01:44:00.856Z,137.26
2023-07-01T01:45:00.848Z,137.62
2023-07-01T01:46:00.824Z,137.34
2023-07-01T01:47:00.866Z,137.77
2023-07-01T01:48:00.822Z,138.60
2023-07-01T01:49:00.803Z,137.31
2023-07-01T01:50:00.774Z,133.54
2023-07-01T01:51:00.756Z,129.71
2023-07-01T01:52:00.746Z,128.08
2023-07-01T01:53:00.715Z,122.51
2023-07-01T01:54:00.701Z,121.06
2023-07-01T01:55:00.704Z,121.10
2023-07-01T01:56:00.678Z,116.71
2023-07-01T01:57:00.721Z,113.37
2023-07-01T01:58:00.751Z,111.35
2023-07-01T01:59:00.744Z,109.91
2023-07-01T02:00:00.727Z,102.90
2023-07-01T02:01:00.730Z,95.07
2023-07-01T02:02:00.770Z,88.77
2023-07-01T02:03:00.768Z,82.95
2023-07-01T02:04:00.846Z,79.85
2023-07-01T02:05:01.055Z,78.90
2023-07-01T02:06:00.698Z,74.38
2023-07-01T02:07:00.638Z,70.06
2023-07-01T02:08:00.677Z,68.48
2023-07-01T02:09:00.653Z,61.89
2023-07-01T02:10:00.680Z,59.94
2023-07-01T02:11:00.709Z,55.37
2023-07-01T02:12:00.769Z,54.98
2023-07-01T02:13:00.814Z,51.51
2023-07-01T02:14:00.880Z,49.97
2023-07-01T02:15:00.911Z,50.88
2023-07-01T02:16:00.971Z,55.92
2023-07-01T02:17:01.089Z,64.74
2023-07-01T02:18:01.220Z,73.58
2023-07-01T02:19:01.082Z,78.96
2023-07-01T02:20:01.141Z,83.78
2023-07-01T02:21:01.201Z,88.47
2023-07-01T02:22:01.248Z,88.75
2023-07-01T02:23:01.284Z,89.27
2023-07-01T02:24:01.344Z,88.28
2023-07-01T02:25:01.369Z,87.81
2023-07-01T02:26:01.411Z,81.71
2023-07-01T02:27:01.476Z,82.61
2023-07-01T02:28:01.507Z,82.73
2023-07-01T02:29:01.553Z,84.02
2023-07-01T02:30:01.592Z,85.82
2023-07-01T02:31:01.669Z,83.04
2023-07-01T02:32:01.696Z,82.26
2023-07-01T02:33:01.809Z,80.51
2023-07-01T02:34:01.801Z,81.79
2023-07-01T02:35:01.838Z,79.19
2023-07-01T02:36:01.884Z,78.34
2023-07-01T02:37:01.944Z,71.64
2023-07-01T02:38:01.976Z,64.21
2023-07-01T02:39:02.019Z,55.35
2023-07-01T02:40:02.071Z,49.57
2023-07-01T02:41:02.118Z,46.69
2023-07-01T02:42:02.168Z,47.47
2023-07-01T02:43:02.235Z,45.21
2023-07-01T02:44:02.261Z,44.08
2023-07-01T02:45:02.333Z,42.58
2023-07-01T02:46:02.413Z,41.43
2023-07-01T02:47:02.432Z,43.14
2023-07-01T02:48:02.526Z,43.41
2023-07-01T02:49:02.529Z,40.45
2023-07-01T02:50:02.598Z,38.78
2023-07-01T02:51:02.639Z,39.25
2023-07-01T02:52:02.682Z,38.44
2023-07-01T02:53:02.750Z,37.94
2023-07-01T02:54:02.790Z,35.90
2023-07-01T02:55:02.851Z,34.69
2023-07-01T02:56:02.895Z,35.58
2023-07-01T02:57:02.956Z,37.23
2023-07-01T02:58:02.951Z,36.77
2023-07-01T02:59:02.929Z,32.90
2023-07-01T03:00:02.925Z,32.99
2023-07-01T03:01:03.015Z,31.80
2023-07-01T03:02:02.970Z,32.59
2023-07-01T03:03:03.068Z,30.65
2023-07-01T03:04:09.086Z,25.88
2023-07-01T03:05:03.977Z,26.04
2023-07-01T03:06:02.893Z,26.21
2023-07-01T03:07:02.902Z,27.10
2023-07-01T03:08:02.880Z,26.52
2023-07-01T03:09:02.878Z,28.41
2023-07-01T03:10:02.878Z,28.25
2023-07-01T03:11:02.883Z,29.35
2023-07-01T03:12:02.881Z,38.26
2023-07-01T03:13:02.850Z,41.16
2023-07-01T03:14:02.847Z,39.78
2023-07-01T03:15:02.883Z,34.70
2023-07-01T03:16:03.036Z,31.19
2023-07-01T03:17:03.051Z,28.55
2023-07-01T03:18:03.055Z,24.34
2023-07-01T03:19:03.095Z,24.18
2023-07-01T03:20:03.070Z,18.58
2023-07-01T03:21:03.085Z,10.14
2023-07-01T03:22:03.093Z,0.00
2023-07-01T03:23:03.066Z,0.00
2023-07-01T03:24:03.067Z,0.00
2023-07-01T03:25:03.062Z,7.59
2023-07-01T03:26:03.062Z,18.80
2023-07-01T03:27:03.056Z,24.31
2023-07-01T03:28:03.045Z,28.89
2023-07-01T03:29:03.094Z,24.39
2023-07-01T03:30:03.157Z,25.51
2023-07-01T03:31:03.268Z,24.82
2023-07-01T03:32:03.302Z,28.54
2023-07-01T03:33:03.402Z,25.41
2023-07-01T03:34:03.446Z,25.52
2023-07-01T03:35:03.477Z,25.47
2023-07-01T03:36:03.538Z,27.65
2023-07-01T03:37:03.588Z,25.63
2023-07-01T03:38:03.610Z,25.31
2023-07-01T03:39:03.623Z,27.33
2023-07-01T03:40:03.644Z,26.83
2023-07-01T03:41:03.661Z,25.76
2023-07-01T03:42:03.690Z,26.68
2023-07-01T03:43:03.747Z,28.96
2023-07-01T03:44:03.723Z,25.70
2023-07-01T03:45:03.757Z,26.60
2023-07-01T03:46:03.899Z,24.47
2023-07-01T03:47:03.838Z,26.73
2023-07-01T03:48:03.914Z,25.38
2023-07-01T03:49:03.975Z,26.06
2023-07-01T03:50:03.972Z,27.51
2023-07-01T03:51:04.007Z,25.37
2023-07-01T03:52:04.066Z,25.02
2023-07-01T03:53:04.085Z,28.89
2023-07-01T03:54:04.099Z,25.00
2023-07-01T03:55:04.104Z,27.28
2023-07-01T03:56:04.119Z,26.98
2023-07-01T03:57:04.138Z,26.33
2023-07-01T03:58:04.154Z,27.77
2023-07-01T03:59:04.169Z,25.77
2023-07-01T04:00:04.188Z,27.63
2023-07-01T04:01:04.223Z,25.60
2023-07-01T04:02:04.254Z,26.01
2023-07-01T04:03:04.338Z,26.47
2023-07-01T04:04:04.340Z,26.35
2023-07-01T04:05:04.336Z,25.00
2023-07-01T04:06:04.362Z,25.18
2023-07-01T04:07:04.369Z,27.05
2023-07-01T04:08:04.393Z,25.85
2023-07-01T04:09:04.409Z,26.10
2023-07-01T04:10:04.411Z,25.61
2023-07-01T04:11:04.426Z,25.56
2023-07-01T04:12:04.452Z,26.34
2023-07-01T04:13:04.446Z,26.15
2023-07-01T04:14:04.461Z,26.45
2023-07-01T04:15:04.452Z,26.44
2023-07-01T04:16:04.464Z,26.50
2023-07-01T04:17:04.503Z,25.92
2023-07-01T04:18:04.530Z,25.91
2023-07-01T04:19:04.506Z,26.68
2023-07-01T04:20:04.509Z,26.78
2023-07-01T04:21:04.505Z,25.25
2023-07-01T04:22:04.513Z,26.74
2023-07-01T04:23:04.513Z,25.53
2023-07-01T04:24:04.497Z,25.29
2023-07-01T04:25:04.520Z,25.92
2023-07-01T04:26:04.508Z,25.00
2023-07-01T04:27:04.526Z,26.19
2023-07-01T04:28:04.504Z,26.14
2023-07-01T04:29:04.524Z,26.38
2023-07-01T04:30:04.559Z,26.56
2023-07-01T04:31:04.512Z,26.56
2023-07-01T04:32:04.512Z,27.70
2023-07-01T04:33:04.611Z,27.80
2023-07-01T04:34:04.527Z,27.61
2023-07-01T04:35:04.518Z,28.46
2023-07-01T04:36:04.513Z,28.69
2023-07-01T04:37:04.536Z,28.74
2023-07-01T04:38:04.517Z,29.07
2023-07-01T04:39:04.545Z,28.28
2023-07-01T04:40:04.539Z,28.47
2023-07-01T04:41:04.554Z,28.90
2023-07-01T04:42:04.561Z,28.49
2023-07-01T04:43:04.573Z,28.53
2023-07-01T04:44:04.563Z,28.38
2023-07-01T04:45:04.568Z,27.64
2023-07-01T04:46:04.543Z,28.53
2023-07-01T04:47:04.562Z,27.39
2023-07-01T04:48:04.607Z,27.12
2023-07-01T04:49:04.566Z,26.80
2023-07-01T04:50:04.571Z,26.32
2023-07-01T04:51:04.545Z,26.34
2023-07-01T04:52:04.553Z,24.68
2023-07-01T04:53:04.538Z,25.48
2023-07-01T04:54:04.522Z,24.92
2023-07-01T04:55:04.525Z,23.79
2023-07-01T04:56:04.519Z,23.48
2023-07-01T04:57:04.534Z,23.12
2023-07-01T04:58:04.535Z,22.95
2023-07-01T04:59:04.535Z,23.18
2023-07-01T05:00:04.522Z,22.64
2023-07-01T05:01:04.538Z,25.22
2023-07-01T05:02:04.639Z,25.93
2023-07-01T05:03:04.654Z,25.40
2023-07-01T05:04:04.635Z,25.00
2023-07-01T05:05:04.680Z,25.20
2023-07-01T05:06:04.550Z,25.27
2023-07-01T05:07:04.569Z,25.78
2023-07-01T05:08:04.567Z,25.00
2023-07-01T05:09:04.555Z,25.15
2023-07-01T05:10:04.549Z,25.17
2023-07-01T05:11:04.577Z,25.83
2023-07-01T05:12:04.553Z,25.85
2023-07-01T05:13:04.554Z,25.17
2023-07-01T05:14:04.557Z,27.06
2023-07-01T05:15:04.561Z,26.90
2023-07-01T05:16:04.600Z,27.98
2023-07-01T05:17:04.547Z,29.65
2023-07-01T05:18:04.564Z,30.93
2023-07-01T05:19:04.538Z,30.38
2023-07-01T05:20:04.541Z,30.00
2023-07-01T05:21:04.536Z,30.66
2023-07-01T05:22:04.540Z,30.21
2023-07-01T05:23:04.540Z,29.99
2023-07-01T05:24:04.528Z,29.88
2023-07-01T05:25:04.566Z,29.80
2023-07-01T05:26:04.569Z,30.80
2023-07-01T05:27:04.541Z,28.75
2023-07-01T05:28:04.533Z,28.87
2023-07-01T05:29:04.508Z,29.28
2023-07-01T05:30:04.515Z,30.25
2023-07-01T05:31:04.546Z,29.50
2023-07-01T05:32:04.516Z,29.17
2023-07-01T05:33:04.580Z,27.99
2023-07-01T05:34:04.489Z,28.12
2023-07-01T05:35:04.516Z,27.44
2023-07-01T05:36:04.504Z,26.82
2023-07-01T05:37:04.507Z,27.60
2023-07-01T05:38:04.526Z,26.54
2023-07-01T05:39:04.495Z,25.72
2023-07-01T05:40:04.540Z,25.19
2023-07-01T05:41:04.528Z,25.00
2023-07-01T05:42:04.522Z,25.26
2023-07-01T05:43:04.555Z,25.99
2023-07-01T05:44:05.002Z,25.11
2023-07-01T05:45:04.621Z,25.60
2023-07-01T05:46:04.621Z,26.07
2023-07-01T05:47:04.612Z,25.91
2023-07-01T05:48:04.688Z,26.14
2023-07-01T05:49:04.692Z,26.54
2023-07-01T05:50:04.713Z,27.44
2023-07-01T05:51:04.671Z,26.62
2023-07-01T05:52:04.683Z,25.13
2023-07-01T05:53:04.719Z,25.84
2023-07-01T05:54:04.764Z,25.38
2023-07-01T05:55:04.762Z,26.35
2023-07-01T05:56:04.772Z,26.72
2023-07-01T05:57:04.766Z,25.49
2023-07-01T05:58:04.786Z,26.04
2023-07-01T05:59:12.132Z,26.39
2023-07-01T06:02:43.275Z,25.00
2023-07-01T06:03:43.234Z,25.00
2023-07-01T06:04:50.944Z,25.00
2023-07-01T06:05:43.156Z,25.00
2023-07-01T06:06:43.134Z,25.00
2023-07-01T06:07:43.094Z,25.00
2023-07-01T06:08:43.084Z,25.00
2023-07-01T06:09:42.983Z,25.00
2023-07-01T06:10:42.969Z,26.02
2023-07-01T06:11:42.885Z,26.35
2023-07-01T06:12:42.845Z,27.25
2023-07-01T06:13:42.815Z,26.39
2023-07-01T06:14:42.777Z,27.62
2023-07-01T06:15:42.743Z,25.84
2023-07-01T06:16:42.765Z,27.67
2023-07-01T06:17:42.744Z,25.62
2023-07-01T06:18:42.688Z,25.00
2023-07-01T06:19:42.709Z,25.66
2023-07-01T06:20:42.724Z,26.38
2023-07-01T06:21:42.739Z,26.58
2023-07-01T06:22:42.769Z,25.00
2023-07-01T06:23:42.800Z,26.41
2023-07-01T06:24:42.795Z,27.62
2023-07-01T06:25:42.822Z,28.84
2023-07-01T06:26:42.838Z,25.00
2023-07-01T06:27:42.902Z,27.46
2023-07-01T06:28:42.874Z,26.93
2023-07-01T06:29:42.908Z,26.66
2023-07-01T06:30:42.974Z,25.92
2023-07-01T06:31:42.991Z,28.52
2023-07-01T06:32:43.010Z,27.07
2023-07-01T06:33:42.974Z,27.79
2023-07-01T06:34:42.984Z,27.99
2023-07-01T06:35:43.006Z,25.00
2023-07-01T06:36:43.029Z,25.63
2023-07-01T06:37:43.064Z,26.54
2023-07-01T06:38:43.094Z,26.85
2023-07-01T06:39:43.080Z,25.00
2023-07-01T06:40:43.094Z,26.17
2023-07-01T06:41:43.138Z,26.69
2023-07-01T06:42:43.128Z,27.47
2023-07-01T06:43:43.138Z,28.76
2023-07-01T06:44:43.178Z,27.23
2023-07-01T06:45:43.220Z,27.08
2023-07-01T06:46:43.240Z,26.69
2023-07-01T06:47:43.232Z,26.56
2023-07-01T06:48:43.238Z,25.87
2023-07-01T06:49:43.253Z,26.66
2023-07-01T06:50:43.240Z,32.66
2023-07-01T06:51:43.284Z,33.40
2023-07-01T06:52:43.287Z,37.95
2023-07-01T06:53:43.293Z,43.92
2023-07-01T06:54:43.302Z,52.36
2023-07-01T06:55:43.341Z,56.15
2023-07-01T06:56:43.330Z,60.18
2023-07-01T06:57:43.334Z,62.91
2023-07-01T06:58:43.351Z,65.81
2023-07-01T06:59:43.367Z,66.05
2023-07-01T07:00:43.381Z,68.99
2023-07-01T07:01:43.605Z,68.60
2023-07-01T07:02:43.448Z,70.54
2023-07-01T07:03:43.428Z,70.89
2023-07-01T07:04:43.468Z,75.27
2023-07-01T07:05:43.458Z,71.69
2023-07-01T07:06:43.435Z,74.02
2023-07-01T07:07:43.488Z,74.42
2023-07-01T07:08:43.453Z,73.39
2023-07-01T07:09:43.493Z,74.11
2023-07-01T07:10:43.492Z,68.45
2023-07-01T07:11:43.479Z,66.82
2023-07-01T07:12:43.437Z,66.83
2023-07-01T07:13:43.385Z,66.32
2023-07-01T07:14:43.328Z,67.16
2023-07-01T07:15:43.370Z,68.52
2023-07-01T07:16:43.232Z,67.33
2023-07-01T07:17:46.513Z,68.27
2023-07-01T07:18:43.222Z,67.48
2023-07-01T07:19:43.085Z,67.92
2023-07-01T07:20:43.029Z,69.40
2023-07-01T07:21:42.979Z,63.36
2023-07-01T07:22:42.933Z,63.06
2023-07-01T07:23:42.889Z,60.38
2023-07-01T07:24:42.843Z,60.29
2023-07-01T07:25:42.787Z,61.64
2023-07-01T07:26:42.744Z,60.51
2023-07-01T07:27:42.767Z,57.27
2023-07-01T07:28:42.630Z,58.94
2023-07-01T07:29:42.582Z,57.71
2023-07-01T07:30:42.554Z,58.46
2023-07-01T07:31:42.537Z,59.84
2023-07-01T07:32:42.505Z,57.72
2023-07-01T07:33:42.396Z,56.24
2023-07-01T07:34:42.353Z,58.00
2023-07-01T07:35:42.276Z,55.62
2023-07-01T07:36:42.239Z,58.25
2023-07-01T07:37:42.168Z,60.92
2023-07-01T07:38:42.125Z,64.06
2023-07-01T07:39:42.065Z,65.27
2023-07-01T07:40:42.020Z,64.83
2023-07-01T07:41:41.970Z,65.33
2023-07-01T07:42:41.914Z,63.74
2023-07-01T07:43:41.875Z,68.56
2023-07-01T07:44:41.809Z,64.59
2023-07-01T07:45:41.779Z,62.89
2023-07-01T07:46:41.730Z,60.86
2023-07-01T07:47:41.822Z,59.60
2023-07-01T07:48:41.618Z,55.84
2023-07-01T07:49:41.581Z,52.98
2023-07-01T07:50:41.521Z,51.64
2023-07-01T07:51:41.526Z,49.87
2023-07-01T07:52:41.555Z,46.96
2023-07-01T07:53:41.524Z,48.55
2023-07-01T07:54:41.558Z,46.80
2023-07-01T07:55:41.555Z,48.73
2023-07-01T07:56:41.566Z,50.91
2023-07-01T07:57:41.585Z,51.41
2023-07-01T07:58:41.588Z,53.79
2023-07-01T07:59:41.608Z,55.00
2023-07-01T08:00:41.610Z,53.98
2023-07-01T08:01:41.739Z,58.34
2023-07-01T08:02:41.659Z,59.16
2023-07-01T08:03:42.096Z,58.15
2023-07-01T08:04:41.851Z,57.50
2023-07-01T08:05:41.685Z,58.51
2023-07-01T08:06:41.697Z,59.71
2023-07-01T08:07:41.740Z,58.37
2023-07-01T08:08:41.751Z,58.21
2023-07-01T08:09:41.749Z,57.06
2023-07-01T08:10:41.762Z,55.33
2023-07-01T08:11:41.786Z,55.15
2023-07-01T08:12:41.796Z,51.82
2023-07-01T08:13:41.820Z,50.05
2023-07-01T08:14:41.847Z,50.06
2023-07-01T08:15:41.858Z,48.84
2023-07-01T08:16:41.926Z,46.53
2023-07-01T08:17:41.926Z,43.83
2023-07-01T08:18:41.969Z,42.52
2023-07-01T08:19:41.936Z,38.35
2023-07-01T08:20:41.969Z,38.35
2023-07-01T08:21:41.985Z,35.41
2023-07-01T08:22:42.003Z,32.42
2023-07-01T08:23:42.018Z,30.06
2023-07-01T08:24:42.060Z,28.63
2023-07-01T08:25:42.080Z,25.00
2023-07-01T08:26:42.072Z,25.03
2023-07-01T08:27:42.099Z,26.71
2023-07-01T08:28:42.111Z,29.80
2023-07-01T08:29:42.147Z,26.52
2023-07-01T08:30:42.181Z,28.19
2023-07-01T08:31:42.168Z,25.60
2023-07-01T08:32:42.205Z,25.01
2023-07-01T08:33:42.190Z,25.72
2023-07-01T08:34:42.224Z,27.47
2023-07-01T08:35:42.225Z,26.46
2023-07-01T08:36:42.233Z,26.72
2023-07-01T08:37:42.268Z,25.04
2023-07-01T08:38:42.264Z,27.94
2023-07-01T08:39:42.306Z,25.33
2023-07-01T08:40:42.298Z,25.30
2023-07-01T08:41:42.306Z,27.42
2023-07-01T08:42:42.338Z,25.94
2023-07-01T08:43:42.350Z,28.56
2023-07-01T08:44:42.379Z,28.27
2023-07-01T08:45:42.377Z,28.21
2023-07-01T08:46:42.488Z,29.78
2023-07-01T08:47:42.508Z,38.49
2023-07-01T08:48:42.422Z,50.62
2023-07-01T08:49:42.417Z,56.63
2023-07-01T08:50:42.464Z,74.42
2023-07-01T08:51:42.431Z,87.70
2023-07-01T08:52:42.447Z,103.41
2023-07-01T08:53:42.435Z,106.23
2023-07-01T08:54:42.453Z,118.10
2023-07-01T08:55:42.460Z,133.68
2023-07-01T08:56:42.436Z,139.75
2023-07-01T08:57:42.431Z,132.66
2023-07-01T08:58:42.439Z,136.93
2023-07-01T08:59:42.421Z,134.54
2023-07-01T09:00:42.423Z,144.96
2023-07-01T09:01:42.545Z,155.45
2023-07-01T09:02:42.492Z,148.85
2023-07-01T09:03:42.406Z,144.07
2023-07-01T09:04:42.390Z,156.65
2023-07-01T09:05:42.362Z,159.36
2023-07-01T09:06:42.340Z,167.45
2023-07-01T09:07:42.331Z,171.14
2023-07-01T09:08:42.308Z,177.74
2023-07-01T09:09:42.296Z,180.15
2023-07-01T09:10:42.286Z,192.08
2023-07-01T09:11:42.222Z,205.57
2023-07-01T09:12:42.234Z,206.77
2023-07-01T09:13:42.227Z,220.68
2023-07-01T09:14:42.154Z,223.98
2023-07-01T09:15:42.149Z,220.40
2023-07-01T09:16:42.263Z,228.62
2023-07-01T09:17:42.198Z,229.57
2023-07-01T09:18:42.079Z,233.99
2023-07-01T09:19:42.114Z,233.02
2023-07-01T09:20:42.033Z,232.27
2023-07-01T09:21:42.008Z,233.52
2023-07-01T09:22:41.971Z,243.30
2023-07-01T09:23:41.938Z,241.24
2023-07-01T09:24:41.912Z,249.49
2023-07-01T09:25:41.876Z,254.27
2023-07-01T09:26:41.886Z,242.57
2023-07-01T09:27:41.846Z,248.60
2023-07-01T09:28:41.779Z,248.78
2023-07-01T09:29:41.774Z,247.55
2023-07-01T09:30:41.729Z,248.65
2023-07-01T09:31:41.730Z,245.29
2023-07-01T09:32:41.677Z,245.31
2023-07-01T09:33:41.610Z,248.86
2023-07-01T09:34:41.596Z,243.95
2023-07-01T09:35:41.555Z,249.39
2023-07-01T09:36:41.563Z,248.37
2023-07-01T09:37:41.518Z,249.72
2023-07-01T09:38:41.415Z,246.98
2023-07-01T09:39:41.382Z,249.82
2023-07-01T09:40:41.338Z,247.93
2023-07-01T09:41:41.279Z,249.71
2023-07-01T09:42:41.260Z,248.15
2023-07-01T09:43:41.196Z,250.00
2023-07-01T09:44:41.159Z,248.75
2023-07-01T09:45:41.173Z,249.50
2023-07-01T09:46:41.062Z,248.39
2023-07-01T09:47:41.042Z,248.99
2023-07-01T09:48:41.010Z,249.43
2023-07-01T09:49:40.924Z,249.88
2023-07-01T09:50:40.898Z,248.95
2023-07-01T09:51:40.888Z,250.00
2023-07-01T09:52:40.922Z,248.06
2023-07-01T09:53:40.886Z,250.00
2023-07-01T09:54:40.872Z,248.01
2023-07-01T09:55:40.821Z,250.71
2023-07-01T09:56:40.825Z,249.81
2023-07-01T09:57:40.810Z,249.54
2023-07-01T09:58:40.783Z,250.00
2023-07-01T09:59:40.770Z,248.96
2023-07-01T10:00:40.777Z,249.71
2023-07-01T10:01:40.762Z,250.00
2023-07-01T10:02:40.966Z,249.90
2023-07-01T10:03:40.724Z,249.16
2023-07-01T10:04:40.724Z,249.41
2023-07-01T10:05:40.612Z,249.20
2023-07-01T10:06:40.640Z,249.33
2023-07-01T10:07:40.633Z,249.66
2023-07-01T10:08:40.590Z,249.56
2023-07-01T10:09:40.578Z,248.99
2023-07-01T10:10:40.588Z,249.26
2023-07-01T10:11:40.562Z,249.40
2023-07-01T10:12:40.581Z,249.50
2023-07-01T10:13:40.543Z,249.35
2023-07-01T10:14:40.508Z,249.64
2023-07-01T10:15:40.605Z,249.55
2023-07-01T10:16:40.607Z,248.36
2023-07-01T10:17:40.506Z,247.86
2023-07-01T10:18:40.480Z,249.49
2023-07-01T10:19:40.489Z,249.72
2023-07-01T10:20:40.533Z,249.87
2023-07-01T10:21:40.441Z,249.12
2023-07-01T10:22:40.484Z,248.66
2023-07-01T10:23:40.431Z,248.23
2023-07-01T10:24:40.447Z,250.00
2023-07-01T10:25:40.459Z,248.25
2023-07-01T10:26:40.432Z,246.46
2023-07-01T10:27:40.458Z,249.71
2023-07-01T10:28:40.436Z,249.29
2023-07-01T10:29:40.434Z,249.10
2023-07-01T10:30:40.483Z,249.69
2023-07-01T10:31:40.423Z,250.00
2023-07-01T10:32:40.482Z,248.27
2023-07-01T10:33:40.424Z,249.47
2023-07-01T10:34:40.410Z,248.74
2023-07-01T10:35:40.410Z,249.81
2023-07-01T10:36:40.458Z,249.31
2023-07-01T10:37:40.448Z,249.40
2023-07-01T10:38:40.443Z,248.61
2023-07-01T10:39:40.476Z,249.43
2023-07-01T10:40:40.484Z,248.70
2023-07-01T10:41:40.481Z,248.11
2023-07-01T10:42:40.481Z,247.83
2023-07-01T10:43:40.509Z,248.78
2023-07-01T10:44:40.496Z,248.04
2023-07-01T10:45:40.481Z,248.66
2023-07-01T10:46:40.500Z,248.56
2023-07-01T10:47:40.579Z,247.82
2023-07-01T10:48:40.494Z,248.79
2023-07-01T10:49:40.510Z,248.76
2023-07-01T10:50:40.485Z,248.14
2023-07-01T10:51:40.501Z,249.90
2023-07-01T10:52:40.498Z,249.91
2023-07-01T10:53:40.510Z,250.00
2023-07-01T10:54:40.477Z,248.14
2023-07-01T10:55:40.549Z,247.45
2023-07-01T10:56:40.514Z,248.66
2023-07-01T10:57:40.519Z,248.62
2023-07-01T10:58:40.503Z,250.00
2023-07-01T10:59:40.487Z,248.34
2023-07-01T11:00:40.498Z,249.55
2023-07-01T11:01:40.536Z,247.99
2023-07-01T11:02:40.649Z,249.55
2023-07-01T11:03:40.623Z,249.19
2023-07-01T11:04:40.612Z,248.60
2023-07-01T11:05:40.455Z,248.69
2023-07-01T11:06:40.383Z,248.85
2023-07-01T11:07:40.327Z,249.00
2023-07-01T11:08:40.318Z,249.58
2023-07-01T11:09:40.223Z,249.56
2023-07-01T11:10:40.150Z,248.88
2023-07-01T11:11:40.072Z,248.98
2023-07-01T11:12:40.035Z,248.29
2023-07-01T11:13:39.952Z,249.26
2023-07-01T11:14:40.056Z,250.00
2023-07-01T11:15:39.951Z,247.48
2023-07-01T11:16:40.004Z,248.25
2023-07-01T11:17:39.933Z,248.32
2023-07-01T11:18:39.814Z,248.50
2023-07-01T11:19:39.786Z,248.38
2023-07-01T11:20:39.686Z,249.71
2023-07-01T11:21:39.702Z,250.42
2023-07-01T11:22:39.592Z,249.08
2023-07-01T11:23:39.486Z,249.16
2023-07-01T11:24:39.427Z,248.73
2023-07-01T11:25:39.396Z,248.87
2023-07-01T11:26:39.402Z,248.72
2023-07-01T11:27:39.397Z,247.87
2023-07-01T11:28:39.399Z,249.06
2023-07-01T11:29:39.651Z,248.70
2023-07-01T11:30:39.365Z,247.33
2023-07-01T11:31:39.397Z,250.00
2023-07-01T11:32:39.386Z,248.08
2023-07-01T11:33:39.349Z,249.10
2023-07-01T11:34:39.359Z,248.67
2023-07-01T11:35:39.305Z,249.00
2023-07-01T11:36:39.337Z,248.10
2023-07-01T11:37:39.326Z,248.05
2023-07-01T11:38:39.314Z,248.06
2023-07-01T11:39:39.276Z,249.28
2023-07-01T11:40:39.283Z,249.48
2023-07-01T11:41:39.291Z,248.53
2023-07-01T11:42:39.288Z,248.57
2023-07-01T11:43:39.248Z,248.55
2023-07-01T11:44:39.250Z,248.71
2023-07-01T11:45:39.297Z,248.37
2023-07-01T11:46:39.281Z,248.47
2023-07-01T11:47:39.120Z,248.58
2023-07-01T11:48:39.056Z,249.03
2023-07-01T11:49:38.987Z,249.05
2023-07-01T11:50:38.933Z,250.99
2023-07-01T11:51:38.874Z,249.44
2023-07-01T11:52:38.793Z,247.31
2023-07-01T11:53:38.764Z,248.50
2023-07-01T11:54:38.674Z,249.15
2023-07-01T11:55:38.677Z,247.51
2023-07-01T11:56:38.621Z,247.46
2023-07-01T11:57:38.618Z,247.53
2023-07-01T11:58:41.591Z,247.63
2023-07-01T11:59:39.457Z,247.68
2023-07-01T12:00:38.394Z,247.93
2023-07-01T12:01:38.402Z,248.56
2023-07-01T12:02:38.297Z,249.10
2023-07-01T12:03:38.259Z,248.41
2023-07-01T12:04:38.140Z,249.16
2023-07-01T12:05:38.084Z,248.51
2023-07-01T12:06:37.996Z,248.26
2023-07-01T12:07:37.927Z,248.09
2023-07-01T12:08:37.894Z,248.72
2023-07-01T12:09:37.889Z,248.01
2023-07-01T12:10:37.904Z,247.85
2023-07-01T12:11:37.891Z,247.98
2023-07-01T12:12:37.881Z,248.09
2023-07-01T12:13:37.862Z,248.34
2023-07-01T12:14:37.832Z,248.05
2023-07-01T12:15:37.845Z,248.17
2023-07-01T12:16:37.845Z,248.33
2023-07-01T12:17:37.969Z,248.34
2023-07-01T12:18:37.806Z,248.12
2023-07-01T12:19:37.771Z,247.85
2023-07-01T12:20:37.764Z,247.33
2023-07-01T12:21:37.745Z,246.60
2023-07-01T12:22:37.753Z,249.31
2023-07-01T12:23:37.742Z,248.58
2023-07-01T12:24:37.716Z,247.89
2023-07-01T12:25:37.715Z,248.72
2023-07-01T12:26:37.679Z,248.08
2023-07-01T12:27:37.682Z,247.43
2023-07-01T12:28:37.654Z,247.54
2023-07-01T12:29:37.652Z,248.14
2023-07-01T12:30:37.645Z,248.01
2023-07-01T12:31:37.718Z,248.48
2023-07-01T12:32:37.658Z,247.69
2023-07-01T12:33:37.587Z,247.76
2023-07-01T12:34:37.650Z,248.04
2023-07-01T12:35:37.413Z,247.77
2023-07-01T12:36:37.354Z,248.45
2023-07-01T12:37:37.283Z,248.02
2023-07-01T12:38:37.214Z,247.89
2023-07-01T12:39:37.144Z,248.73
2023-07-01T12:40:37.064Z,248.67
2023-07-01T12:41:37.008Z,248.44
2023-07-01T12:42:36.984Z,246.56
2023-07-01T12:43:36.987Z,248.10
2023-07-01T12:44:36.961Z,248.56